createdAt,value
2023-02-01T00:02:02.581Z,1.56
2023-02-01T00:04:30.380Z,1.57
2023-02-01T00:06:57.923Z,1.55
2023-02-01T00:09:25.450Z,1.54
2023-02-01T00:11:52.719Z,1.55
2023-02-01T00:14:20.203Z,1.57
2023-02-01T00:16:47.300Z,1.58
2023-02-01T00:19:15.052Z,1.61
2023-02-01T00:21:42.633Z,1.61
2023-02-01T00:24:10.554Z,1.62
2023-02-01T00:26:45.061Z,1.62
2023-02-01T00:29:19.726Z,1.59
2023-02-01T00:31:46.748Z,1.57
2023-02-01T00:34:15.503Z,1.54
2023-02-01T00:36:43.077Z,1.52
2023-02-01T00:39:10.323Z,1.54
2023-02-01T00:41:37.679Z,1.55
2023-02-01T00:44:04.752Z,1.52
2023-02-01T00:46:32.035Z,1.50
2023-02-01T00:48:59.278Z,1.50
2023-02-01T00:51:27.900Z,1.51
2023-02-01T00:53:56.112Z,1.49
2023-02-01T00:56:23.634Z,1.50
2023-02-01T00:58:51.221Z,1.51
2023-02-01T01:01:20.687Z,1.52
2023-02-01T01:03:51.106Z,1.56
2023-02-01T01:06:37.136Z,1.58
2023-02-01T01:09:06.064Z,1.58
2023-02-01T01:11:35.597Z,1.52
2023-02-01T01:14:02.720Z,1.47
2023-02-01T01:16:31.463Z,1.44
2023-02-01T01:18:59.111Z,1.45
2023-02-01T01:21:26.581Z,1.47
2023-02-01T01:23:53.655Z,1.49
2023-02-01T01:26:23.038Z,1.54
2023-02-01T01:28:50.122Z,1.55
2023-02-01T01:31:18.303Z,1.57
2023-02-01T01:33:47.764Z,1.62
2023-02-01T01:36:16.059Z,1.65
2023-02-01T01:38:43.287Z,1.67
2023-02-01T01:41:16.665Z,1.72
2023-02-01T01:43:58.293Z,1.76
2023-02-01T01:46:29.106Z,1.79
2023-02-01T01:49:12.884Z,1.79
2023-02-01T01:51:45.242Z,1.80
2023-02-01T01:54:17.724Z,1.79
2023-02-01T01:56:47.224Z,1.77
2023-02-01T01:59:14.335Z,1.76
2023-02-01T02:01:41.733Z,1.74
2023-02-01T02:04:11.541Z,1.71
2023-02-01T02:06:41.747Z,1.69
2023-02-01T02:09:08.724Z,1.67
2023-02-01T02:11:36.372Z,1.67
2023-02-01T02:14:03.877Z,1.66
2023-02-01T02:16:53.142Z,1.66
2023-02-01T02:19:26.278Z,1.65
2023-02-01T02:22:30.122Z,1.63
2023-02-01T02:25:04.395Z,1.64
2023-02-01T02:27:45.790Z,1.61
2023-02-01T02:30:30.968Z,1.61
2023-02-01T02:33:32.833Z,1.60
2023-02-01T02:36:24.790Z,1.56
2023-02-01T02:39:01.559Z,1.53
2023-02-01T02:42:06.746Z,1.50
2023-02-01T02:44:57.513Z,1.50
2023-02-01T02:47:52.279Z,1.50
2023-02-01T02:50:51.529Z,1.50
2023-02-01T02:53:44.504Z,1.49
2023-02-01T02:56:30.166Z,1.48
2023-02-01T02:59:15.737Z,1.49
2023-02-01T03:02:04.106Z,1.50
2023-02-01T03:04:31.709Z,1.51
2023-02-01T03:07:28.717Z,1.53
2023-02-01T03:09:55.936Z,1.53
2023-02-01T03:12:42.148Z,1.53
2023-02-01T03:15:10.980Z,1.56
2023-02-01T03:17:40.345Z,1.58
2023-02-01T03:20:08.641Z,1.59
2023-02-01T03:22:36.307Z,1.61
2023-02-01T03:25:06.298Z,1.61
2023-02-01T03:27:40.200Z,1.60
2023-02-01T03:30:22.849Z,1.59
2023-02-01T03:33:01.770Z,1.60
2023-02-01T03:35:38.640Z,1.60
2023-02-01T03:38:30.401Z,1.60
2023-02-01T03:41:24.566Z,1.59
2023-02-01T03:43:55.583Z,1.58
2023-02-01T03:46:48.592Z,1.59
2023-02-01T03:49:58.311Z,1.59
2023-02-01T03:52:43.616Z,1.60
2023-02-01T03:55:13.045Z,1.59
2023-02-01T03:57:51.582Z,1.54
2023-02-01T04:00:23.737Z,1.48
2023-02-01T04:02:51.351Z,1.44
2023-02-01T04:05:18.443Z,1.41
2023-02-01T04:08:05.769Z,1.37
2023-02-01T04:10:38.777Z,1.31
2023-02-01T04:13:07.243Z,1.29
2023-02-01T04:15:35.387Z,1.28
2023-02-01T04:18:02.455Z,1.28
2023-02-01T04:20:29.662Z,1.29
2023-02-01T04:22:58.580Z,1.29
2023-02-01T04:25:26.078Z,1.30
2023-02-01T04:27:52.991Z,1.30
2023-02-01T04:30:20.623Z,1.27
2023-02-01T04:32:47.819Z,1.24
2023-02-01T04:35:18.748Z,1.18
2023-02-01T04:37:45.769Z,1.11
2023-02-01T04:40:13.047Z,1.04
2023-02-01T04:42:40.251Z,1.00
2023-02-01T04:45:09.357Z,0.96
2023-02-01T04:47:36.733Z,0.90
2023-02-01T04:50:04.256Z,0.82
2023-02-01T04:52:31.507Z,0.74
2023-02-01T04:54:59.770Z,0.65
2023-02-01T04:57:26.895Z,0.57
2023-02-01T04:59:54.255Z,0.52
2023-02-01T05:02:21.348Z,0.50
2023-02-01T05:04:48.566Z,0.50
2023-02-01T05:07:16.220Z,0.48
2023-02-01T05:09:43.366Z,0.45
2023-02-01T05:12:29.392Z,0.44
2023-02-01T05:14:57.818Z,0.45
2023-02-01T05:17:24.936Z,0.45
2023-02-01T05:19:51.944Z,0.45
2023-02-01T05:22:19.104Z,0.48
2023-02-01T05:24:46.316Z,0.49
2023-02-01T05:27:13.715Z,0.48
2023-02-01T05:29:41.172Z,0.45
2023-02-01T05:32:21.669Z,0.44
2023-02-01T05:34:50.085Z,0.44
2023-02-01T05:37:17.924Z,0.43
2023-02-01T05:39:45.269Z,0.44
2023-02-01T05:42:12.581Z,0.45
2023-02-01T05:44:39.590Z,0.46
2023-02-01T05:47:07.471Z,0.49
2023-02-01T05:49:34.426Z,0.50
2023-02-01T05:52:06.831Z,0.51
2023-02-01T05:54:34.928Z,0.51
2023-02-01T05:57:03.414Z,0.51
2023-02-01T05:59:30.785Z,0.52
2023-02-01T06:01:57.896Z,0.57
2023-02-01T06:04:25.291Z,0.62
2023-02-01T06:06:52.588Z,0.66
2023-02-01T06:09:19.760Z,0.70
2023-02-01T06:11:47.569Z,0.74
2023-02-01T06:14:14.730Z,0.81
2023-02-01T06:16:41.899Z,0.88
2023-02-01T06:19:09.350Z,0.95
2023-02-01T06:21:36.799Z,1.02
2023-02-01T06:24:04.409Z,1.03
2023-02-01T06:26:31.856Z,1.05
2023-02-01T06:28:59.330Z,1.10
2023-02-01T06:31:26.535Z,1.20
2023-02-01T06:33:54.115Z,1.23
2023-02-01T06:36:24.533Z,1.30
2023-02-01T06:38:51.546Z,1.39
2023-02-01T06:41:21.013Z,1.40
2023-02-01T06:43:48.733Z,1.33
2023-02-01T06:46:15.971Z,1.24
2023-02-01T06:48:43.013Z,1.19
2023-02-01T06:51:36.220Z,1.22
2023-02-01T06:54:03.260Z,1.36
2023-02-01T06:56:31.860Z,1.53
2023-02-01T06:58:58.945Z,1.67
2023-02-01T07:01:27.253Z,1.76
2023-02-01T07:03:54.458Z,1.87
2023-02-01T07:06:21.593Z,1.98
2023-02-01T07:08:50.019Z,2.04
2023-02-01T07:11:18.280Z,2.05
2023-02-01T07:13:45.691Z,2.07
2023-02-01T07:16:14.414Z,2.06
2023-02-01T07:18:41.483Z,2.05
2023-02-01T07:21:08.692Z,2.08
2023-02-01T07:23:36.071Z,2.07
2023-02-01T07:26:04.668Z,2.07
2023-02-01T07:28:33.126Z,2.13
2023-02-01T07:31:18.532Z,2.19
2023-02-01T07:33:46.685Z,2.25
2023-02-01T07:36:15.788Z,2.33
2023-02-01T07:38:43.053Z,2.41
2023-02-01T07:41:10.238Z,2.46
2023-02-01T07:43:37.499Z,2.48
2023-02-01T07:46:05.101Z,2.50
2023-02-01T07:48:34.117Z,2.52
2023-02-01T07:51:05.199Z,2.54
2023-02-01T07:53:33.331Z,2.51
2023-02-01T07:56:01.072Z,2.43
2023-02-01T07:58:28.278Z,2.34
2023-02-01T08:01:14.031Z,2.32
2023-02-01T08:03:41.163Z,2.39
2023-02-01T08:06:08.183Z,2.51
2023-02-01T08:08:35.609Z,2.61
2023-02-01T08:11:04.460Z,2.72
2023-02-01T08:13:31.617Z,2.82
2023-02-01T08:16:03.220Z,2.90
2023-02-01T08:18:30.858Z,2.95
2023-02-01T08:20:57.970Z,2.98
2023-02-01T08:23:25.128Z,3.02
2023-02-01T08:25:52.207Z,3.04
2023-02-01T08:28:19.545Z,3.10
2023-02-01T08:30:46.842Z,3.13
2023-02-01T08:33:14.180Z,3.20
2023-02-01T08:35:44.135Z,3.27
2023-02-01T08:38:11.439Z,3.33
2023-02-01T08:40:38.989Z,3.36
2023-02-01T08:43:07.433Z,3.46
2023-02-01T08:45:34.392Z,3.56
2023-02-01T08:48:03.899Z,3.63
2023-02-01T08:50:31.400Z,3.63
2023-02-01T08:52:59.861Z,3.65
2023-02-01T08:55:27.247Z,3.70
2023-02-01T08:57:54.630Z,3.73
2023-02-01T09:00:22.221Z,3.77
2023-02-01T09:02:49.357Z,3.80
2023-02-01T09:05:18.652Z,3.85
2023-02-01T09:07:45.816Z,3.89
2023-02-01T09:10:14.545Z,3.92
2023-02-01T09:12:42.984Z,3.94
2023-02-01T09:15:10.843Z,3.94
2023-02-01T09:17:39.155Z,3.96
2023-02-01T09:20:07.506Z,3.95
2023-02-01T09:22:34.600Z,3.98
2023-02-01T09:25:01.636Z,4.01
2023-02-01T09:27:29.243Z,4.02
2023-02-01T09:29:56.256Z,4.01
2023-02-01T09:32:23.673Z,4.02
2023-02-01T09:34:51.781Z,4.08
2023-02-01T09:37:19.790Z,4.10
2023-02-01T09:39:46.761Z,4.12
2023-02-01T09:42:32.365Z,4.17
2023-02-01T09:45:02.807Z,4.11
2023-02-01T09:47:30.417Z,3.99
2023-02-01T09:50:23.340Z,3.92
2023-02-01T09:52:56.594Z,3.90
2023-02-01T09:55:37.397Z,3.81
2023-02-01T09:58:25.473Z,3.66
2023-02-01T10:00:56.476Z,3.54
2023-02-01T10:03:24.961Z,3.47
2023-02-01T10:06:10.277Z,3.45
2023-02-01T10:08:52.467Z,3.46
2023-02-01T10:11:31.704Z,3.54
2023-02-01T10:14:13.266Z,3.64
2023-02-01T10:16:43.902Z,3.75
2023-02-01T10:19:22.959Z,3.85
2023-02-01T10:21:56.016Z,3.91
2023-02-01T10:24:25.961Z,3.96
2023-02-01T10:27:07.040Z,4.01
2023-02-01T10:29:37.362Z,3.99
2023-02-01T10:32:12.659Z,3.93
2023-02-01T10:34:40.018Z,3.88
2023-02-01T10:37:20.094Z,3.86
2023-02-01T10:39:49.271Z,3.91
2023-02-01T10:42:19.650Z,3.96
2023-02-01T10:44:48.499Z,3.95
2023-02-01T10:47:16.241Z,3.94
2023-02-01T10:49:49.164Z,3.94
2023-02-01T10:52:20.883Z,3.89
2023-02-01T10:54:47.815Z,3.82
2023-02-01T10:57:26.335Z,3.79
2023-02-01T10:59:53.528Z,3.78
2023-02-01T11:02:32.028Z,3.81
2023-02-01T11:05:12.670Z,3.91
2023-02-01T11:07:40.223Z,3.99
2023-02-01T11:10:10.754Z,4.06
2023-02-01T11:12:38.142Z,4.17
2023-02-01T11:15:12.378Z,4.29
2023-02-01T11:17:47.085Z,4.32
2023-02-01T11:20:19.264Z,4.35
2023-02-01T11:22:56.521Z,4.39
2023-02-01T11:25:24.166Z,4.41
2023-02-01T11:27:55.401Z,4.36
2023-02-01T11:30:26.284Z,4.28
2023-02-01T11:32:53.166Z,4.24
2023-02-01T11:35:21.215Z,4.25
2023-02-01T11:37:54.214Z,4.28
2023-02-01T11:40:28.759Z,4.33
2023-02-01T11:43:12.593Z,4.37
2023-02-01T11:45:39.956Z,4.40
2023-02-01T11:48:18.201Z,4.40
2023-02-01T11:51:12.974Z,4.38
2023-02-01T11:54:08.344Z,4.34
2023-02-01T11:57:07.213Z,4.37
2023-02-01T11:59:43.086Z,4.41
2023-02-01T12:02:22.080Z,4.39
2023-02-01T12:04:58.685Z,4.37
2023-02-01T12:07:33.522Z,4.36
2023-02-01T12:10:19.747Z,4.37
2023-02-01T12:12:57.226Z,4.44
2023-02-01T12:15:29.423Z,4.54
2023-02-01T12:18:25.480Z,4.62
2023-02-01T12:21:06.611Z,4.66
2023-02-01T12:23:51.589Z,4.64
2023-02-01T12:26:33.789Z,4.58
2023-02-01T12:29:23.320Z,4.51
2023-02-01T12:32:02.256Z,4.39
2023-02-01T12:34:48.244Z,4.28
2023-02-01T12:37:27.666Z,4.26
2023-02-01T12:40:00.583Z,4.30
2023-02-01T12:42:32.022Z,4.39
2023-02-01T12:45:24.539Z,4.49
2023-02-01T12:47:54.954Z,4.59
2023-02-01T12:50:28.960Z,4.65
2023-02-01T12:53:04.968Z,4.68
2023-02-01T12:55:37.764Z,4.68
2023-02-01T12:58:24.011Z,4.65
2023-02-01T13:00:53.263Z,4.61
2023-02-01T13:03:40.584Z,4.55
2023-02-01T13:06:14.551Z,4.48
2023-02-01T13:08:58.765Z,4.47
2023-02-01T13:11:31.488Z,4.47
2023-02-01T13:14:03.900Z,4.44
2023-02-01T13:16:33.620Z,4.35
2023-02-01T13:19:06.060Z,4.23
2023-02-01T13:21:35.952Z,4.09
2023-02-01T13:24:03.184Z,3.95
2023-02-01T13:26:30.298Z,3.85
2023-02-01T13:29:03.765Z,3.79
2023-02-01T13:31:30.907Z,3.77
2023-02-01T13:34:19.500Z,3.75
2023-02-01T13:37:08.540Z,3.72
2023-02-01T13:40:01.135Z,3.67
2023-02-01T13:42:30.183Z,3.60
2023-02-01T13:45:14.788Z,3.55
2023-02-01T13:47:43.857Z,3.49
2023-02-01T13:50:29.293Z,3.49
2023-02-01T13:52:59.110Z,3.51
2023-02-01T13:55:28.707Z,3.53
2023-02-01T13:58:15.680Z,3.53
2023-02-01T14:00:46.001Z,3.51
2023-02-01T14:03:36.265Z,3.43
2023-02-01T14:06:04.088Z,3.38
2023-02-01T14:08:39.720Z,3.39
2023-02-01T14:11:06.774Z,3.45
2023-02-01T14:13:40.772Z,3.49
2023-02-01T14:16:18.115Z,3.48
2023-02-01T14:18:46.908Z,3.46
2023-02-01T14:21:23.009Z,3.46
2023-02-01T14:23:53.727Z,3.49
2023-02-01T14:26:39.416Z,3.50
2023-02-01T14:29:20.600Z,3.52
2023-02-01T14:31:53.738Z,3.50
2023-02-01T14:34:47.609Z,3.49
2023-02-01T14:37:17.839Z,3.48
2023-02-01T14:39:44.991Z,3.44
2023-02-01T14:42:15.330Z,3.44
2023-02-01T14:44:59.446Z,3.41
2023-02-01T14:47:28.871Z,3.38
2023-02-01T14:50:28.228Z,3.34
2023-02-01T14:53:11.115Z,3.30
2023-02-01T14:55:42.428Z,3.24
2023-02-01T14:58:33.278Z,3.16
2023-02-01T15:01:05.780Z,3.09
2023-02-01T15:03:39.370Z,3.03
2023-02-01T15:06:39.580Z,2.99
2023-02-01T15:09:13.155Z,3.00
2023-02-01T15:12:04.502Z,3.01
2023-02-01T15:14:34.059Z,2.97
2023-02-01T15:17:01.209Z,2.94
2023-02-01T15:19:30.926Z,2.91
2023-02-01T15:21:58.492Z,2.86
2023-02-01T15:24:26.230Z,2.80
2023-02-01T15:26:54.260Z,2.77
2023-02-01T15:29:28.013Z,2.76
2023-02-01T15:31:56.120Z,2.82
2023-02-01T15:34:24.716Z,2.84
2023-02-01T15:37:02.869Z,2.83
2023-02-01T15:39:31.373Z,2.82
2023-02-01T15:42:02.468Z,2.85
2023-02-01T15:44:31.288Z,2.86
2023-02-01T15:46:59.508Z,2.87
2023-02-01T15:49:33.223Z,2.87
2023-02-01T15:52:01.323Z,2.88
2023-02-01T15:54:42.991Z,2.82
2023-02-01T15:57:10.693Z,2.79
2023-02-01T15:59:44.427Z,2.76
2023-02-01T16:02:39.426Z,2.74
2023-02-01T16:05:23.212Z,2.72
2023-02-01T16:07:57.415Z,2.63
2023-02-01T16:10:26.964Z,2.56
2023-02-01T16:12:59.057Z,2.50
2023-02-01T16:15:30.236Z,2.45
2023-02-01T16:17:57.384Z,2.39
2023-02-01T16:20:24.458Z,2.37
2023-02-01T16:22:51.753Z,2.36
2023-02-01T16:25:18.774Z,2.35
2023-02-01T16:27:46.119Z,2.30
2023-02-01T16:30:13.488Z,2.24
2023-02-01T16:32:40.698Z,2.19
2023-02-01T16:35:19.482Z,2.14
2023-02-01T16:37:46.879Z,2.12
2023-02-01T16:40:15.207Z,2.09
2023-02-01T16:42:42.503Z,2.07
2023-02-01T16:45:10.077Z,2.04
2023-02-01T16:47:37.893Z,1.99
2023-02-01T16:50:22.768Z,1.94
2023-02-01T16:52:51.434Z,1.87
2023-02-01T16:55:19.930Z,1.81
2023-02-01T16:57:48.963Z,1.76
2023-02-01T17:00:24.396Z,1.73
2023-02-01T17:02:53.644Z,1.74
2023-02-01T17:05:21.365Z,1.75
2023-02-01T17:07:48.865Z,1.75
2023-02-01T17:10:32.622Z,1.75
2023-02-01T17:13:00.735Z,1.72
2023-02-01T17:15:29.603Z,1.71
2023-02-01T17:18:02.195Z,1.68
2023-02-01T17:20:32.428Z,1.67
2023-02-01T17:23:00.175Z,1.69
2023-02-01T17:25:28.352Z,1.70
2023-02-01T17:27:58.313Z,1.70
2023-02-01T17:30:25.731Z,1.66
2023-02-01T17:32:53.112Z,1.60
2023-02-01T17:35:23.241Z,1.55
2023-02-01T17:37:50.701Z,1.51
2023-02-01T17:40:17.989Z,1.47
2023-02-01T17:42:45.290Z,1.45
2023-02-01T17:45:39.930Z,1.43
2023-02-01T17:48:07.424Z,1.40
2023-02-01T17:50:36.625Z,1.35
2023-02-01T17:53:05.468Z,1.30
2023-02-01T17:55:34.474Z,1.25
2023-02-01T17:58:01.614Z,1.22
2023-02-01T18:00:30.072Z,1.22
2023-02-01T18:02:57.647Z,1.23
2023-02-01T18:05:53.061Z,1.24
2023-02-01T18:08:23.779Z,1.23
2023-02-01T18:11:01.195Z,1.19
2023-02-01T18:13:28.876Z,1.16
2023-02-01T18:15:58.538Z,1.11
2023-02-01T18:18:25.798Z,1.04
2023-02-01T18:20:52.826Z,0.98
2023-02-01T18:23:22.014Z,0.92
2023-02-01T18:25:50.956Z,0.91
2023-02-01T18:28:18.704Z,0.90
2023-02-01T18:30:47.822Z,0.86
2023-02-01T18:33:16.673Z,0.82
2023-02-01T18:35:44.425Z,0.75
2023-02-01T18:38:11.574Z,0.69
2023-02-01T18:41:00.572Z,0.63
2023-02-01T18:43:27.657Z,0.58
2023-02-01T18:45:55.403Z,0.54
2023-02-01T18:48:22.612Z,0.55
2023-02-01T18:50:51.661Z,0.57
2023-02-01T18:53:19.766Z,0.56
2023-02-01T18:55:50.303Z,0.54
2023-02-01T18:58:17.834Z,0.55
2023-02-01T19:00:46.566Z,0.55
2023-02-01T19:03:14.314Z,0.57
2023-02-01T19:05:41.302Z,0.60
2023-02-01T19:08:11.341Z,0.63
2023-02-01T19:10:41.363Z,0.63
2023-02-01T19:13:12.714Z,0.60
2023-02-01T19:15:41.843Z,0.61
2023-02-01T19:18:09.242Z,0.61
2023-02-01T19:20:57.654Z,0.58
2023-02-01T19:23:26.312Z,0.57
2023-02-01T19:25:54.949Z,0.61
2023-02-01T19:28:30.571Z,0.64
2023-02-01T19:31:04.472Z,0.67
2023-02-01T19:33:32.087Z,0.67
2023-02-01T19:36:02.914Z,0.65
2023-02-01T19:38:31.283Z,0.61
2023-02-01T19:40:59.899Z,0.57
2023-02-01T19:43:27.712Z,0.54
2023-02-01T19:45:55.413Z,0.56
2023-02-01T19:48:23.170Z,0.60
2023-02-01T19:50:51.172Z,0.65
2023-02-01T19:53:19.100Z,0.70
2023-02-01T19:55:47.701Z,0.75
2023-02-01T19:58:36.792Z,0.80
2023-02-01T20:01:05.604Z,0.82
2023-02-01T20:03:33.184Z,0.85
2023-02-01T20:06:00.896Z,0.88
2023-02-01T20:08:28.268Z,0.92
2023-02-01T20:10:56.935Z,0.92
2023-02-01T20:13:24.690Z,0.92
2023-02-01T20:15:58.837Z,0.94
2023-02-01T20:18:26.865Z,0.95
2023-02-01T20:20:56.277Z,0.93
2023-02-01T20:23:23.774Z,0.91
2023-02-01T20:25:53.375Z,0.90
2023-02-01T20:28:21.096Z,0.91
2023-02-01T20:30:50.739Z,0.93
2023-02-01T20:33:20.290Z,0.91
2023-02-01T20:35:47.719Z,0.91
2023-02-01T20:38:17.648Z,0.92
2023-02-01T20:40:47.457Z,0.91
2023-02-01T20:43:14.823Z,0.87
2023-02-01T20:45:42.445Z,0.85
2023-02-01T20:48:10.697Z,0.83
2023-02-01T20:50:38.585Z,0.82
2023-02-01T20:53:06.095Z,0.83
2023-02-01T20:55:38.176Z,0.86
2023-02-01T20:58:07.130Z,0.86
2023-02-01T21:00:34.516Z,0.87
2023-02-01T21:03:02.595Z,0.84
2023-02-01T21:05:40.173Z,0.82
2023-02-01T21:08:12.284Z,0.83
2023-02-01T21:10:39.793Z,0.88
2023-02-01T21:13:07.914Z,0.95
2023-02-01T21:15:36.301Z,1.02
2023-02-01T21:18:04.576Z,1.06
2023-02-01T21:20:33.995Z,1.09
2023-02-01T21:23:01.410Z,1.10
2023-02-01T21:25:28.641Z,1.10
2023-02-01T21:27:56.177Z,1.06
2023-02-01T21:30:23.434Z,1.03
2023-02-01T21:32:51.950Z,0.99
2023-02-01T21:35:19.279Z,0.97
2023-02-01T21:37:47.088Z,0.93
2023-02-01T21:40:17.884Z,0.90
2023-02-01T21:42:58.043Z,0.88
2023-02-01T21:45:31.063Z,0.84
2023-02-01T21:48:02.148Z,0.80
2023-02-01T21:50:34.679Z,0.75
2023-02-01T21:53:03.275Z,0.71
2023-02-01T21:55:31.387Z,0.68
2023-02-01T21:57:58.374Z,0.65
2023-02-01T22:00:25.761Z,0.63
2023-02-01T22:02:53.495Z,0.65
2023-02-01T22:05:20.981Z,0.69
2023-02-01T22:07:49.208Z,0.72
2023-02-01T22:10:16.341Z,0.77
2023-02-01T22:13:03.155Z,0.79
2023-02-01T22:15:32.435Z,0.80
2023-02-01T22:17:59.557Z,0.79
2023-02-01T22:20:28.260Z,0.76
2023-02-01T22:22:56.223Z,0.75
2023-02-01T22:25:28.098Z,0.75
2023-02-01T22:28:30.900Z,0.76
2023-02-01T22:30:42.806Z,0.76
2023-02-01T22:33:15.430Z,0.75
2023-02-01T22:35:42.498Z,0.75
2023-02-01T22:38:10.436Z,0.77
2023-02-01T22:40:57.506Z,0.78
2023-02-01T22:43:25.479Z,0.82
2023-02-01T22:45:52.834Z,0.86
2023-02-01T22:48:20.653Z,0.89
2023-02-01T22:50:47.718Z,0.91
2023-02-01T22:53:15.304Z,0.91
2023-02-01T22:55:44.929Z,0.90
2023-02-01T22:58:12.479Z,0.86
2023-02-01T23:00:39.685Z,0.83
2023-02-01T23:03:08.392Z,0.81
2023-02-01T23:05:35.509Z,0.81
2023-02-01T23:08:05.182Z,0.81
2023-02-01T23:10:33.233Z,0.80
2023-02-01T23:13:00.489Z,0.79
2023-02-01T23:15:27.473Z,0.76
2023-02-01T23:17:54.631Z,0.74
2023-02-01T23:20:23.476Z,0.72
2023-02-01T23:22:50.643Z,0.72
2023-02-01T23:25:17.817Z,0.73
2023-02-01T23:27:48.267Z,0.75
2023-02-01T23:30:16.759Z,0.79
2023-02-01T23:32:44.315Z,0.86
2023-02-01T23:35:12.441Z,0.90
2023-02-01T23:37:40.369Z,0.94
2023-02-01T23:40:07.899Z,1.01
2023-02-01T23:42:35.342Z,1.08
2023-02-01T23:45:03.035Z,1.17
2023-02-01T23:47:30.096Z,1.23
2023-02-01T23:49:57.197Z,1.28
2023-02-01T23:52:25.976Z,1.35
2023-02-01T23:54:53.166Z,1.42
2023-02-01T23:57:21.568Z,1.49
2023-02-01T23:59:48.933Z,1.55
